sensor_id;sensor_type;location;lat;lon;timestamp;temperature;humidity
65034;DHT22;51601;51.356;12.458;2023-06-10T00:03:29;19.00;63.00
65034;DHT22;51601;51.356;12.458;2023-06-10T00:08:10;18.90;63.30
65034;DHT22;51601;51.356;12.458;2023-06-10T00:12:48;18.80;63.60
65034;DHT22;51601;51.356;12.458;2023-06-10T00:17:27;18.70;63.60
65034;DHT22;51601;51.356;12.458;2023-06-10T00:22:07;18.60;63.90
65034;DHT22;51601;51.356;12.458;2023-06-10T00:26:48;18.60;64.10
65034;DHT22;51601;51.356;12.458;2023-06-10T00:31:26;18.40;64.20
65034;DHT22;51601;51.356;12.458;2023-06-10T00:36:06;18.40;64.30
65034;DHT22;51601;51.356;12.458;2023-06-10T00:40:45;18.30;64.70
65034;DHT22;51601;51.356;12.458;2023-06-10T00:45:26;18.20;64.80
65034;DHT22;51601;51.356;12.458;2023-06-10T00:50:05;18.10;65.00
65034;DHT22;51601;51.356;12.458;2023-06-10T00:54:44;18.00;65.30
65034;DHT22;51601;51.356;12.458;2023-06-10T00:59:24;17.90;65.40
65034;DHT22;51601;51.356;12.458;2023-06-10T01:04:05;17.80;65.50
65034;DHT22;51601;51.356;12.458;2023-06-10T01:08:49;17.70;65.70
65034;DHT22;51601;51.356;12.458;2023-06-10T01:13:32;17.60;65.90
65034;DHT22;51601;51.356;12.458;2023-06-10T01:18:11;17.40;66.30
65034;DHT22;51601;51.356;12.458;2023-06-10T01:22:56;17.30;66.80
65034;DHT22;51601;51.356;12.458;2023-06-10T01:27:38;17.20;67.10
65034;DHT22;51601;51.356;12.458;2023-06-10T01:32:23;17.10;67.50
65034;DHT22;51601;51.356;12.458;2023-06-10T01:37:05;17.10;67.90
65034;DHT22;51601;51.356;12.458;2023-06-10T01:41:46;16.90;68.50
65034;DHT22;51601;51.356;12.458;2023-06-10T01:46:27;16.80;69.30
65034;DHT22;51601;51.356;12.458;2023-06-10T01:51:06;16.80;69.70
65034;DHT22;51601;51.356;12.458;2023-06-10T01:55:46;16.70;70.20
65034;DHT22;51601;51.356;12.458;2023-06-10T02:00:27;16.60;70.60
65034;DHT22;51601;51.356;12.458;2023-06-10T02:05:08;16.60;71.20
65034;DHT22;51601;51.356;12.458;2023-06-10T02:09:48;16.50;71.80
65034;DHT22;51601;51.356;12.458;2023-06-10T02:14:27;16.40;72.60
65034;DHT22;51601;51.356;12.458;2023-06-10T02:19:08;16.30;73.40
65034;DHT22;51601;51.356;12.458;2023-06-10T02:23:46;16.30;74.10
65034;DHT22;51601;51.356;12.458;2023-06-10T02:28:26;16.20;74.70
65034;DHT22;51601;51.356;12.458;2023-06-10T02:33:05;16.20;75.40
65034;DHT22;51601;51.356;12.458;2023-06-10T02:37:49;16.10;76.00
65034;DHT22;51601;51.356;12.458;2023-06-10T02:42:31;16.00;76.80
65034;DHT22;51601;51.356;12.458;2023-06-10T02:47:10;15.90;77.80
65034;DHT22;51601;51.356;12.458;2023-06-10T02:51:50;15.90;78.80
65034;DHT22;51601;51.356;12.458;2023-06-10T02:56:34;15.80;79.20
65034;DHT22;51601;51.356;12.458;2023-06-10T03:01:18;15.80;79.90
65034;DHT22;51601;51.356;12.458;2023-06-10T03:06:04;15.80;80.70
65034;DHT22;51601;51.356;12.458;2023-06-10T03:10:43;15.70;81.70
65034;DHT22;51601;51.356;12.458;2023-06-10T03:15:27;15.70;82.60
65034;DHT22;51601;51.356;12.458;2023-06-10T03:20:15;15.70;83.80
65034;DHT22;51601;51.356;12.458;2023-06-10T03:24:54;15.70;85.50
65034;DHT22;51601;51.356;12.458;2023-06-10T03:29:34;15.80;87.30
65034;DHT22;51601;51.356;12.458;2023-06-10T03:34:15;15.90;89.00
65034;DHT22;51601;51.356;12.458;2023-06-10T03:38:53;16.20;90.10
65034;DHT22;51601;51.356;12.458;2023-06-10T03:43:36;16.50;90.80
65034;DHT22;51601;51.356;12.458;2023-06-10T03:48:15;16.80;90.60
65034;DHT22;51601;51.356;12.458;2023-06-10T03:52:59;17.10;90.50
65034;DHT22;51601;51.356;12.458;2023-06-10T03:57:37;17.50;90.20
65034;DHT22;51601;51.356;12.458;2023-06-10T04:02:17;17.90;89.40
65034;DHT22;51601;51.356;12.458;2023-06-10T04:06:57;18.30;88.30
65034;DHT22;51601;51.356;12.458;2023-06-10T04:11:37;18.80;86.80
65034;DHT22;51601;51.356;12.458;2023-06-10T04:16:16;19.30;83.80
65034;DHT22;51601;51.356;12.458;2023-06-10T04:20:58;19.80;80.70
65034;DHT22;51601;51.356;12.458;2023-06-10T04:25:38;20.30;78.20
65034;DHT22;51601;51.356;12.458;2023-06-10T04:30:19;20.90;76.10
65034;DHT22;51601;51.356;12.458;2023-06-10T04:35:00;21.40;73.70
65034;DHT22;51601;51.356;12.458;2023-06-10T04:39:40;22.00;70.70
65034;DHT22;51601;51.356;12.458;2023-06-10T04:44:19;22.50;68.60
65034;DHT22;51601;51.356;12.458;2023-06-10T04:49:00;23.10;66.40
65034;DHT22;51601;51.356;12.458;2023-06-10T04:53:38;23.50;64.30
65034;DHT22;51601;51.356;12.458;2023-06-10T04:58:18;23.90;62.40
65034;DHT22;51601;51.356;12.458;2023-06-10T05:02:57;24.30;61.30
65034;DHT22;51601;51.356;12.458;2023-06-10T05:07:38;24.70;59.70
65034;DHT22;51601;51.356;12.458;2023-06-10T05:12:17;25.00;58.10
65034;DHT22;51601;51.356;12.458;2023-06-10T05:16:56;25.20;57.10
65034;DHT22;51601;51.356;12.458;2023-06-10T05:21:36;25.60;56.60
65034;DHT22;51601;51.356;12.458;2023-06-10T05:26:17;26.00;55.60
65034;DHT22;51601;51.356;12.458;2023-06-10T05:30:55;26.40;54.70
65034;DHT22;51601;51.356;12.458;2023-06-10T05:35:34;26.70;53.60
65034;DHT22;51601;51.356;12.458;2023-06-10T05:40:14;27.00;52.00
65034;DHT22;51601;51.356;12.458;2023-06-10T05:44:55;27.10;51.10
65034;DHT22;51601;51.356;12.458;2023-06-10T05:49:33;27.10;51.10
65034;DHT22;51601;51.356;12.458;2023-06-10T05:54:13;27.20;51.20
65034;DHT22;51601;51.356;12.458;2023-06-10T05:58:52;27.40;50.60
65034;DHT22;51601;51.356;12.458;2023-06-10T06:03:33;27.70;50.10
65034;DHT22;51601;51.356;12.458;2023-06-10T06:08:11;28.00;50.10
65034;DHT22;51601;51.356;12.458;2023-06-10T06:12:54;28.50;49.60
65034;DHT22;51601;51.356;12.458;2023-06-10T06:17:33;29.10;48.30
65034;DHT22;51601;51.356;12.458;2023-06-10T06:22:14;29.50;47.20
65034;DHT22;51601;51.356;12.458;2023-06-10T06:26:59;29.90;46.40
65034;DHT22;51601;51.356;12.458;2023-06-10T06:31:38;30.20;46.00
65034;DHT22;51601;51.356;12.458;2023-06-10T06:36:18;30.50;45.40
65034;DHT22;51601;51.356;12.458;2023-06-10T06:40:59;31.00;44.90
65034;DHT22;51601;51.356;12.458;2023-06-10T06:45:40;31.30;44.20
65034;DHT22;51601;51.356;12.458;2023-06-10T06:50:20;31.70;43.40
65034;DHT22;51601;51.356;12.458;2023-06-10T06:54:59;31.90;42.70
65034;DHT22;51601;51.356;12.458;2023-06-10T06:59:41;32.20;42.30
65034;DHT22;51601;51.356;12.458;2023-06-10T07:04:18;32.50;42.30
65034;DHT22;51601;51.356;12.458;2023-06-10T07:08:58;32.80;41.30
65034;DHT22;51601;51.356;12.458;2023-06-10T07:13:37;32.90;41.30
65034;DHT22;51601;51.356;12.458;2023-06-10T07:18:18;33.30;40.90
65034;DHT22;51601;51.356;12.458;2023-06-10T07:22:56;33.70;40.30
65034;DHT22;51601;51.356;12.458;2023-06-10T07:27:36;34.20;39.30
65034;DHT22;51601;51.356;12.458;2023-06-10T07:32:16;34.30;39.00
65034;DHT22;51601;51.356;12.458;2023-06-10T07:36:57;34.40;38.80
65034;DHT22;51601;51.356;12.458;2023-06-10T07:41:35;34.60;38.70
65034;DHT22;51601;51.356;12.458;2023-06-10T07:46:14;34.90;38.50
65034;DHT22;51601;51.356;12.458;2023-06-10T07:50:54;35.40;37.90
65034;DHT22;51601;51.356;12.458;2023-06-10T07:55:35;35.80;37.60
65034;DHT22;51601;51.356;12.458;2023-06-10T08:00:13;36.20;37.10
65034;DHT22;51601;51.356;12.458;2023-06-10T08:04:52;36.50;36.70
65034;DHT22;51601;51.356;12.458;2023-06-10T08:09:32;36.70;36.20
65034;DHT22;51601;51.356;12.458;2023-06-10T08:14:13;36.80;35.90
65034;DHT22;51601;51.356;12.458;2023-06-10T08:18:54;37.10;35.20
65034;DHT22;51601;51.356;12.458;2023-06-10T08:23:34;37.00;35.10
65034;DHT22;51601;51.356;12.458;2023-06-10T08:28:13;36.90;35.10
65034;DHT22;51601;51.356;12.458;2023-06-10T08:32:55;36.70;35.40
65034;DHT22;51601;51.356;12.458;2023-06-10T08:37:33;36.90;35.30
65034;DHT22;51601;51.356;12.458;2023-06-10T08:42:22;37.10;35.30
65034;DHT22;51601;51.356;12.458;2023-06-10T08:47:05;37.40;36.00
65034;DHT22;51601;51.356;12.458;2023-06-10T08:51:50;37.80;34.80
65034;DHT22;51601;51.356;12.458;2023-06-10T08:56:33;38.10;34.40
65034;DHT22;51601;51.356;12.458;2023-06-10T09:01:15;38.50;34.00
65034;DHT22;51601;51.356;12.458;2023-06-10T09:05:55;38.60;33.40
65034;DHT22;51601;51.356;12.458;2023-06-10T09:10:36;38.50;33.10
65034;DHT22;51601;51.356;12.458;2023-06-10T09:15:20;38.10;33.40
65034;DHT22;51601;51.356;12.458;2023-06-10T09:20:00;37.50;34.40
65034;DHT22;51601;51.356;12.458;2023-06-10T09:24:39;37.30;33.80
65034;DHT22;51601;51.356;12.458;2023-06-10T09:29:20;37.10;33.70
65034;DHT22;51601;51.356;12.458;2023-06-10T09:34:06;36.80;34.30
65034;DHT22;51601;51.356;12.458;2023-06-10T09:38:44;36.80;35.10
65034;DHT22;51601;51.356;12.458;2023-06-10T09:43:23;36.50;34.50
65034;DHT22;51601;51.356;12.458;2023-06-10T09:48:16;36.50;35.00
65034;DHT22;51601;51.356;12.458;2023-06-10T09:52:55;36.30;34.70
65034;DHT22;51601;51.356;12.458;2023-06-10T09:57:34;35.80;34.90
65034;DHT22;51601;51.356;12.458;2023-06-10T10:02:14;35.20;35.60
65034;DHT22;51601;51.356;12.458;2023-06-10T10:06:55;34.60;36.40
65034;DHT22;51601;51.356;12.458;2023-06-10T10:11:34;33.80;37.50
65034;DHT22;51601;51.356;12.458;2023-06-10T10:16:15;33.20;38.40
65034;DHT22;51601;51.356;12.458;2023-06-10T10:20:55;32.90;39.00
65034;DHT22;51601;51.356;12.458;2023-06-10T10:25:38;32.70;39.20
65034;DHT22;51601;51.356;12.458;2023-06-10T10:30:20;32.30;39.80
65034;DHT22;51601;51.356;12.458;2023-06-10T10:35:07;32.20;40.50
65034;DHT22;51601;51.356;12.458;2023-06-10T10:39:49;32.40;40.60
65034;DHT22;51601;51.356;12.458;2023-06-10T10:44:30;32.60;40.00
65034;DHT22;51601;51.356;12.458;2023-06-10T10:49:13;32.50;39.90
65034;DHT22;51601;51.356;12.458;2023-06-10T10:54:12;32.50;39.90
65034;DHT22;51601;51.356;12.458;2023-06-10T10:59:03;32.60;39.50
65034;DHT22;51601;51.356;12.458;2023-06-10T11:03:45;33.10;39.70
65034;DHT22;51601;51.356;12.458;2023-06-10T11:08:46;33.50;38.10
65034;DHT22;51601;51.356;12.458;2023-06-10T11:13:28;33.60;37.20
65034;DHT22;51601;51.356;12.458;2023-06-10T11:18:14;33.20;38.20
65034;DHT22;51601;51.356;12.458;2023-06-10T11:23:01;32.90;39.00
65034;DHT22;51601;51.356;12.458;2023-06-10T11:27:41;32.70;39.60
65034;DHT22;51601;51.356;12.458;2023-06-10T11:32:21;33.10;38.80
65034;DHT22;51601;51.356;12.458;2023-06-10T11:37:00;32.80;38.20
65034;DHT22;51601;51.356;12.458;2023-06-10T11:41:45;32.40;38.90
65034;DHT22;51601;51.356;12.458;2023-06-10T11:46:25;31.80;39.40
65034;DHT22;51601;51.356;12.458;2023-06-10T11:51:06;31.20;40.00
65034;DHT22;51601;51.356;12.458;2023-06-10T11:55:46;31.00;40.30
65034;DHT22;51601;51.356;12.458;2023-06-10T12:00:26;30.90;40.90
65034;DHT22;51601;51.356;12.458;2023-06-10T12:05:10;30.60;41.00
65034;DHT22;51601;51.356;12.458;2023-06-10T12:09:59;30.20;41.60
65034;DHT22;51601;51.356;12.458;2023-06-10T12:14:58;30.00;41.90
65034;DHT22;51601;51.356;12.458;2023-06-10T12:19:39;29.80;41.40
65034;DHT22;51601;51.356;12.458;2023-06-10T12:24:19;29.70;41.30
65034;DHT22;51601;51.356;12.458;2023-06-10T12:28:58;29.50;41.70
65034;DHT22;51601;51.356;12.458;2023-06-10T12:33:38;29.30;41.70
65034;DHT22;51601;51.356;12.458;2023-06-10T12:38:22;29.10;42.10
65034;DHT22;51601;51.356;12.458;2023-06-10T12:43:03;29.10;40.00
65034;DHT22;51601;51.356;12.458;2023-06-10T12:47:43;29.10;56.90
65034;DHT22;51601;51.356;12.458;2023-06-10T12:52:24;26.60;72.30
65034;DHT22;51601;51.356;12.458;2023-06-10T12:57:04;23.30;94.70
65034;DHT22;51601;51.356;12.458;2023-06-10T13:01:49;21.30;99.90
65034;DHT22;51601;51.356;12.458;2023-06-10T13:06:27;20.30;99.90
65034;DHT22;51601;51.356;12.458;2023-06-10T13:11:07;19.70;99.90
65034;DHT22;51601;51.356;12.458;2023-06-10T13:15:48;19.30;99.90
65034;DHT22;51601;51.356;12.458;2023-06-10T13:20:26;19.10;99.90
65034;DHT22;51601;51.356;12.458;2023-06-10T13:25:06;19.10;99.90
65034;DHT22;51601;51.356;12.458;2023-06-10T13:29:45;19.10;99.90
65034;DHT22;51601;51.356;12.458;2023-06-10T13:34:27;19.30;99.90
65034;DHT22;51601;51.356;12.458;2023-06-10T13:39:07;19.50;99.90
65034;DHT22;51601;51.356;12.458;2023-06-10T13:43:47;19.80;99.90
65034;DHT22;51601;51.356;12.458;2023-06-10T13:48:26;20.10;99.90
65034;DHT22;51601;51.356;12.458;2023-06-10T13:53:07;20.40;99.90
65034;DHT22;51601;51.356;12.458;2023-06-10T13:57:45;20.70;99.90
65034;DHT22;51601;51.356;12.458;2023-06-10T14:02:25;21.10;99.90
65034;DHT22;51601;51.356;12.458;2023-06-10T14:07:05;21.50;99.90
65034;DHT22;51601;51.356;12.458;2023-06-10T14:11:46;21.90;99.90
65034;DHT22;51601;51.356;12.458;2023-06-10T14:16:27;22.20;99.90
65034;DHT22;51601;51.356;12.458;2023-06-10T14:21:06;22.50;99.90
65034;DHT22;51601;51.356;12.458;2023-06-10T14:25:46;22.70;99.90
65034;DHT22;51601;51.356;12.458;2023-06-10T14:30:27;23.00;99.90
65034;DHT22;51601;51.356;12.458;2023-06-10T14:35:05;23.30;99.90
65034;DHT22;51601;51.356;12.458;2023-06-10T14:39:45;23.60;99.90
65034;DHT22;51601;51.356;12.458;2023-06-10T14:44:24;23.90;99.90
65034;DHT22;51601;51.356;12.458;2023-06-10T14:49:06;24.20;99.90
65034;DHT22;51601;51.356;12.458;2023-06-10T14:53:43;24.40;99.90
65034;DHT22;51601;51.356;12.458;2023-06-10T14:58:23;24.60;99.90
65034;DHT22;51601;51.356;12.458;2023-06-10T15:03:02;24.70;99.90
65034;DHT22;51601;51.356;12.458;2023-06-10T15:07:43;24.70;99.90
65034;DHT22;51601;51.356;12.458;2023-06-10T15:12:21;24.60;99.90
65034;DHT22;51601;51.356;12.458;2023-06-10T15:17:01;24.60;99.90
65034;DHT22;51601;51.356;12.458;2023-06-10T15:21:40;24.60;99.90
65034;DHT22;51601;51.356;12.458;2023-06-10T15:26:21;24.60;99.90
65034;DHT22;51601;51.356;12.458;2023-06-10T15:31:00;24.60;99.90
65034;DHT22;51601;51.356;12.458;2023-06-10T15:35:39;24.60;99.90
65034;DHT22;51601;51.356;12.458;2023-06-10T15:40:19;24.70;99.10
65034;DHT22;51601;51.356;12.458;2023-06-10T15:45:00;24.70;96.40
65034;DHT22;51601;51.356;12.458;2023-06-10T15:49:38;24.90;98.10
65034;DHT22;51601;51.356;12.458;2023-06-10T15:54:18;25.00;97.60
65034;DHT22;51601;51.356;12.458;2023-06-10T15:58:57;25.00;96.70
65034;DHT22;51601;51.356;12.458;2023-06-10T16:03:38;25.10;94.90
65034;DHT22;51601;51.356;12.458;2023-06-10T16:08:16;25.20;93.70
65034;DHT22;51601;51.356;12.458;2023-06-10T16:12:56;25.30;88.70
65034;DHT22;51601;51.356;12.458;2023-06-10T16:17:35;25.40;82.10
65034;DHT22;51601;51.356;12.458;2023-06-10T16:22:16;25.50;79.00
65034;DHT22;51601;51.356;12.458;2023-06-10T16:26:54;25.60;75.40
65034;DHT22;51601;51.356;12.458;2023-06-10T16:31:34;25.70;72.00
65034;DHT22;51601;51.356;12.458;2023-06-10T16:36:13;25.90;66.60
65034;DHT22;51601;51.356;12.458;2023-06-10T16:40:54;26.00;63.40
65034;DHT22;51601;51.356;12.458;2023-06-10T16:45:36;26.00;61.20
65034;DHT22;51601;51.356;12.458;2023-06-10T16:50:15;25.90;61.50
65034;DHT22;51601;51.356;12.458;2023-06-10T16:54:55;25.90;60.40
65034;DHT22;51601;51.356;12.458;2023-06-10T16:59:36;25.90;60.60
65034;DHT22;51601;51.356;12.458;2023-06-10T17:04:14;25.90;60.60
65034;DHT22;51601;51.356;12.458;2023-06-10T17:08:53;25.90;60.70
65034;DHT22;51601;51.356;12.458;2023-06-10T17:13:33;25.90;58.60
65034;DHT22;51601;51.356;12.458;2023-06-10T17:18:17;25.80;55.80
65034;DHT22;51601;51.356;12.458;2023-06-10T17:22:55;25.70;55.60
65034;DHT22;51601;51.356;12.458;2023-06-10T17:27:35;25.60;55.40
65034;DHT22;51601;51.356;12.458;2023-06-10T17:32:14;25.40;55.50
65034;DHT22;51601;51.356;12.458;2023-06-10T17:36:55;25.40;56.40
65034;DHT22;51601;51.356;12.458;2023-06-10T17:41:33;25.30;57.50
65034;DHT22;51601;51.356;12.458;2023-06-10T17:46:13;25.20;58.40
65034;DHT22;51601;51.356;12.458;2023-06-10T17:50:53;25.20;57.70
65034;DHT22;51601;51.356;12.458;2023-06-10T17:55:34;25.10;58.00
65034;DHT22;51601;51.356;12.458;2023-06-10T18:00:12;25.00;57.80
65034;DHT22;51601;51.356;12.458;2023-06-10T18:04:51;24.90;58.00
65034;DHT22;51601;51.356;12.458;2023-06-10T18:09:31;24.80;58.20
65034;DHT22;51601;51.356;12.458;2023-06-10T18:14:12;24.80;58.70
65034;DHT22;51601;51.356;12.458;2023-06-10T18:18:50;24.60;58.80
65034;DHT22;51601;51.356;12.458;2023-06-10T18:23:29;24.60;59.20
65034;DHT22;51601;51.356;12.458;2023-06-10T18:28:09;24.40;59.60
65034;DHT22;51601;51.356;12.458;2023-06-10T18:32:50;24.30;59.90
65034;DHT22;51601;51.356;12.458;2023-06-10T18:37:28;24.20;60.10
65034;DHT22;51601;51.356;12.458;2023-06-10T18:42:08;24.20;60.50
65034;DHT22;51601;51.356;12.458;2023-06-10T18:46:47;24.20;60.40
65034;DHT22;51601;51.356;12.458;2023-06-10T18:51:28;24.10;60.40
65034;DHT22;51601;51.356;12.458;2023-06-10T18:56:06;24.10;60.20
65034;DHT22;51601;51.356;12.458;2023-06-10T19:00:46;24.00;60.40
65034;DHT22;51601;51.356;12.458;2023-06-10T19:05:25;23.90;60.70
65034;DHT22;51601;51.356;12.458;2023-06-10T19:10:08;23.80;60.80
65034;DHT22;51601;51.356;12.458;2023-06-10T19:14:48;23.70;61.40
65034;DHT22;51601;51.356;12.458;2023-06-10T19:19:27;23.50;61.50
65034;DHT22;51601;51.356;12.458;2023-06-10T19:24:07;23.40;60.30
65034;DHT22;51601;51.356;12.458;2023-06-10T19:28:48;23.10;60.30
65034;DHT22;51601;51.356;12.458;2023-06-10T19:33:26;23.00;60.40
65034;DHT22;51601;51.356;12.458;2023-06-10T19:38:06;22.80;59.90
65034;DHT22;51601;51.356;12.458;2023-06-10T19:42:46;22.70;59.20
65034;DHT22;51601;51.356;12.458;2023-06-10T19:47:26;22.50;58.70
65034;DHT22;51601;51.356;12.458;2023-06-10T19:52:05;22.40;58.50
65034;DHT22;51601;51.356;12.458;2023-06-10T19:56:44;22.30;58.60
65034;DHT22;51601;51.356;12.458;2023-06-10T20:01:23;22.20;58.80
65034;DHT22;51601;51.356;12.458;2023-06-10T20:06:04;22.10;59.10
65034;DHT22;51601;51.356;12.458;2023-06-10T20:10:42;22.00;59.30
65034;DHT22;51601;51.356;12.458;2023-06-10T20:15:22;21.80;59.40
65034;DHT22;51601;51.356;12.458;2023-06-10T20:20:02;21.70;59.70
65034;DHT22;51601;51.356;12.458;2023-06-10T20:30:21;21.50;60.50
65034;DHT22;51601;51.356;12.458;2023-06-10T20:35:33;21.30;60.80
65034;DHT22;51601;51.356;12.458;2023-06-10T20:46:24;21.10;61.90
65034;DHT22;51601;51.356;12.458;2023-06-10T20:56:32;21.00;62.70
65034;DHT22;51601;51.356;12.458;2023-06-10T21:01:13;20.90;63.20
65034;DHT22;51601;51.356;12.458;2023-06-10T21:05:51;20.80;63.60
65034;DHT22;51601;51.356;12.458;2023-06-10T21:10:34;20.70;63.80
65034;DHT22;51601;51.356;12.458;2023-06-10T21:15:15;20.60;64.00
65034;DHT22;51601;51.356;12.458;2023-06-10T21:19:54;20.50;63.90
65034;DHT22;51601;51.356;12.458;2023-06-10T21:24:32;20.40;63.70
65034;DHT22;51601;51.356;12.458;2023-06-10T21:29:12;20.40;63.60
65034;DHT22;51601;51.356;12.458;2023-06-10T21:33:51;20.30;63.50
65034;DHT22;51601;51.356;12.458;2023-06-10T21:38:32;20.20;63.60
65034;DHT22;51601;51.356;12.458;2023-06-10T21:43:11;20.10;63.60
65034;DHT22;51601;51.356;12.458;2023-06-10T21:47:50;20.10;63.80
65034;DHT22;51601;51.356;12.458;2023-06-10T21:52:30;20.00;64.20
65034;DHT22;51601;51.356;12.458;2023-06-10T21:57:11;19.90;64.40
65034;DHT22;51601;51.356;12.458;2023-06-10T22:01:49;19.80;64.50
65034;DHT22;51601;51.356;12.458;2023-06-10T22:06:29;19.80;64.70
65034;DHT22;51601;51.356;12.458;2023-06-10T22:11:08;19.80;64.80
65034;DHT22;51601;51.356;12.458;2023-06-10T22:15:49;19.70;64.90
65034;DHT22;51601;51.356;12.458;2023-06-10T22:20:27;19.70;65.00
65034;DHT22;51601;51.356;12.458;2023-06-10T22:25:07;19.60;64.80
65034;DHT22;51601;51.356;12.458;2023-06-10T22:29:46;19.60;64.60
65034;DHT22;51601;51.356;12.458;2023-06-10T22:34:27;19.60;64.20
65034;DHT22;51601;51.356;12.458;2023-06-10T22:39:07;19.60;64.00
65034;DHT22;51601;51.356;12.458;2023-06-10T22:43:48;19.60;63.80
65034;DHT22;51601;51.356;12.458;2023-06-10T22:48:27;19.50;63.70
65034;DHT22;51601;51.356;12.458;2023-06-10T22:53:08;19.50;63.90
65034;DHT22;51601;51.356;12.458;2023-06-10T22:57:47;19.40;64.00
65034;DHT22;51601;51.356;12.458;2023-06-10T23:02:26;19.30;64.10
65034;DHT22;51601;51.356;12.458;2023-06-10T23:07:06;19.20;64.20
65034;DHT22;51601;51.356;12.458;2023-06-10T23:11:47;19.20;64.30
65034;DHT22;51601;51.356;12.458;2023-06-10T23:16:25;19.20;64.50
65034;DHT22;51601;51.356;12.458;2023-06-10T23:21:04;19.10;64.60
65034;DHT22;51601;51.356;12.458;2023-06-10T23:25:44;19.00;64.80
65034;DHT22;51601;51.356;12.458;2023-06-10T23:30:25;19.00;65.00
65034;DHT22;51601;51.356;12.458;2023-06-10T23:35:04;18.90;65.30
65034;DHT22;51601;51.356;12.458;2023-06-10T23:39:43;18.80;65.60
65034;DHT22;51601;51.356;12.458;2023-06-10T23:44:22;18.70;65.60
65034;DHT22;51601;51.356;12.458;2023-06-10T23:49:04;18.60;65.80
65034;DHT22;51601;51.356;12.458;2023-06-10T23:53:45;18.50;65.90
65034;DHT22;51601;51.356;12.458;2023-06-10T23:58:24;18.50;66.20
